sensor_id;sensor_type;location;lat;lon;timestamp;pressure;altitude;pressure_sealevel;temperature;humidity
60918;BME280;46792;38.854;-9.384;2023-09-19T00:01:35;99795.06;;;18.48;92.75
60918;BME280;46792;38.854;-9.384;2023-09-19T00:03:36;99797.78;;;18.48;92.74
60918;BME280;46792;38.854;-9.384;2023-09-19T00:08:36;99788.28;;;18.46;92.62
60918;BME280;46792;38.854;-9.384;2023-09-19T00:10:36;99784.75;;;18.45;92.66
60918;BME280;46792;38.854;-9.384;2023-09-19T00:17:34;99787.78;;;18.44;91.43
60918;BME280;46792;38.854;-9.384;2023-09-19T00:19:35;99786.34;;;18.46;91.43
60918;BME280;46792;38.854;-9.384;2023-09-19T00:21:36;99785.53;;;18.46;90.96
60918;BME280;46792;38.854;-9.384;2023-09-19T00:26:19;99785.41;;;18.51;89.29
60918;BME280;46792;38.854;-9.384;2023-09-19T00:28:23;99792.19;;;18.53;88.31
60918;BME280;46792;38.854;-9.384;2023-09-19T00:30:23;99800.38;;;18.53;87.81
60918;BME280;46792;38.854;-9.384;2023-09-19T00:32:24;99789.28;;;18.50;87.68
60918;BME280;46792;38.854;-9.384;2023-09-19T00:34:25;99793.44;;;18.47;87.72
60918;BME280;46792;38.854;-9.384;2023-09-19T00:38:45;99786.91;;;18.34;88.12
60918;BME280;46792;38.854;-9.384;2023-09-19T00:41:20;99785.63;;;18.32;88.53
60918;BME280;46792;38.854;-9.384;2023-09-19T00:43:21;99790.59;;;18.30;88.51
60918;BME280;46792;38.854;-9.384;2023-09-19T00:45:24;99790.59;;;18.30;88.65
60918;BME280;46792;38.854;-9.384;2023-09-19T00:53:01;99778.03;;;18.29;87.87
60918;BME280;46792;38.854;-9.384;2023-09-19T00:55:02;99785.63;;;18.32;87.60
60918;BME280;46792;38.854;-9.384;2023-09-19T00:57:22;99783.00;;;18.27;87.53
60918;BME280;46792;38.854;-9.384;2023-09-19T00:59:23;99783.31;;;18.25;87.47
60918;BME280;46792;38.854;-9.384;2023-09-19T01:01:24;99778.28;;;18.18;87.74
60918;BME280;46792;38.854;-9.384;2023-09-19T01:03:44;99781.50;;;18.20;88.14
60918;BME280;46792;38.854;-9.384;2023-09-19T01:06:03;99782.63;;;18.19;87.78
60918;BME280;46792;38.854;-9.384;2023-09-19T01:08:04;99773.31;;;18.20;87.86
60918;BME280;46792;38.854;-9.384;2023-09-19T01:10:06;99775.72;;;18.22;87.76
60918;BME280;46792;38.854;-9.384;2023-09-19T01:12:10;99776.22;;;18.24;87.89
60918;BME280;46792;38.854;-9.384;2023-09-19T01:14:42;99776.41;;;18.28;87.44
60918;BME280;46792;38.854;-9.384;2023-09-19T01:17:08;99765.97;;;18.30;87.19
60918;BME280;46792;38.854;-9.384;2023-09-19T01:22:00;99776.31;;;18.33;86.78
60918;BME280;46792;38.854;-9.384;2023-09-19T01:24:15;99774.69;;;18.32;86.80
60918;BME280;46792;38.854;-9.384;2023-09-19T01:31:09;99768.16;;;18.19;86.24
60918;BME280;46792;38.854;-9.384;2023-09-19T01:33:11;99764.72;;;18.13;86.73
60918;BME280;46792;38.854;-9.384;2023-09-19T01:35:11;99756.16;;;18.06;87.06
60918;BME280;46792;38.854;-9.384;2023-09-19T01:37:16;99760.31;;;18.03;87.43
60918;BME280;46792;38.854;-9.384;2023-09-19T01:39:20;99762.03;;;17.99;87.22
60918;BME280;46792;38.854;-9.384;2023-09-19T01:41:26;99762.03;;;17.99;87.84
60918;BME280;46792;38.854;-9.384;2023-09-19T01:43:35;99762.25;;;18.03;87.67
60918;BME280;46792;38.854;-9.384;2023-09-19T01:48:46;99764.56;;;17.96;87.42
60918;BME280;46792;38.854;-9.384;2023-09-19T01:51:20;99756.09;;;17.83;87.21
60918;BME280;46792;38.854;-9.384;2023-09-19T01:55:50;99757.44;;;17.72;87.25
60918;BME280;46792;38.854;-9.384;2023-09-19T01:58:34;99743.28;;;17.70;87.35
60918;BME280;46792;38.854;-9.384;2023-09-19T02:00:41;99749.34;;;17.67;87.61
60918;BME280;46792;38.854;-9.384;2023-09-19T02:02:45;99751.59;;;17.64;88.18
60918;BME280;46792;38.854;-9.384;2023-09-19T02:05:06;99741.78;;;17.63;88.22
60918;BME280;46792;38.854;-9.384;2023-09-19T02:07:07;99753.81;;;17.62;88.91
60918;BME280;46792;38.854;-9.384;2023-09-19T02:09:08;99748.84;;;17.64;88.87
60918;BME280;46792;38.854;-9.384;2023-09-19T02:11:09;99743.50;;;17.59;89.05
60918;BME280;46792;38.854;-9.384;2023-09-19T02:15:47;99747.66;;;17.57;89.72
60918;BME280;46792;38.854;-9.384;2023-09-19T02:17:48;99736.34;;;17.49;89.87
60918;BME280;46792;38.854;-9.384;2023-09-19T02:19:49;99735.34;;;17.45;90.30
60918;BME280;46792;38.854;-9.384;2023-09-19T02:24:28;99739.47;;;17.43;89.98
60918;BME280;46792;38.854;-9.384;2023-09-19T02:26:28;99727.75;;;17.42;90.09
60918;BME280;46792;38.854;-9.384;2023-09-19T02:28:29;99729.66;;;17.42;90.22
60918;BME280;46792;38.854;-9.384;2023-09-19T02:33:30;99724.03;;;17.38;90.99
60918;BME280;46792;38.854;-9.384;2023-09-19T02:35:32;99730.31;;;17.39;91.34
60918;BME280;46792;38.854;-9.384;2023-09-19T02:37:36;99726.47;;;17.40;92.27
60918;BME280;46792;38.854;-9.384;2023-09-19T02:42:19;99725.22;;;17.46;92.01
60918;BME280;46792;38.854;-9.384;2023-09-19T02:44:19;99718.66;;;17.47;92.08
60918;BME280;46792;38.854;-9.384;2023-09-19T02:46:20;99721.38;;;17.47;92.38
60918;BME280;46792;38.854;-9.384;2023-09-19T02:48:37;99716.94;;;17.51;92.20
60918;BME280;46792;38.854;-9.384;2023-09-19T02:50:38;99709.84;;;17.50;92.20
60918;BME280;46792;38.854;-9.384;2023-09-19T02:52:45;99701.56;;;17.55;92.03
60918;BME280;46792;38.854;-9.384;2023-09-19T02:54:47;99703.78;;;17.53;91.99
60918;BME280;46792;38.854;-9.384;2023-09-19T02:56:48;99707.03;;;17.55;91.91
60918;BME280;46792;38.854;-9.384;2023-09-19T02:58:48;99696.59;;;17.57;91.71
60918;BME280;46792;38.854;-9.384;2023-09-19T03:00:49;99700.47;;;17.56;91.39
60918;BME280;46792;38.854;-9.384;2023-09-19T03:02:55;99702.94;;;17.67;91.11
60918;BME280;46792;38.854;-9.384;2023-09-19T03:04:56;99695.56;;;17.67;90.38
60918;BME280;46792;38.854;-9.384;2023-09-19T03:06:57;99707.47;;;17.71;89.81
60918;BME280;46792;38.854;-9.384;2023-09-19T03:09:19;99696.66;;;17.66;89.74
60918;BME280;46792;38.854;-9.384;2023-09-19T03:11:39;99693.25;;;17.60;90.11
60918;BME280;46792;38.854;-9.384;2023-09-19T03:14:17;99693.56;;;17.59;90.32
60918;BME280;46792;38.854;-9.384;2023-09-19T03:16:39;99693.38;;;17.55;90.35
60918;BME280;46792;38.854;-9.384;2023-09-19T03:18:40;99686.31;;;17.54;90.67
60918;BME280;46792;38.854;-9.384;2023-09-19T03:20:41;99681.75;;;17.49;90.54
60918;BME280;46792;38.854;-9.384;2023-09-19T03:22:43;99687.34;;;17.44;90.82
60918;BME280;46792;38.854;-9.384;2023-09-19T03:24:44;99682.16;;;17.43;90.74
60918;BME280;46792;38.854;-9.384;2023-09-19T03:26:45;99681.19;;;17.39;91.66
60918;BME280;46792;38.854;-9.384;2023-09-19T03:28:46;99683.41;;;17.37;91.80
60918;BME280;46792;38.854;-9.384;2023-09-19T03:31:04;99680.69;;;17.37;92.30
60918;BME280;46792;38.854;-9.384;2023-09-19T03:33:08;99670.38;;;17.33;92.75
60918;BME280;46792;38.854;-9.384;2023-09-19T03:37:29;99666.03;;;17.32;92.92
60918;BME280;46792;38.854;-9.384;2023-09-19T03:39:29;99682.72;;;17.31;93.00
60918;BME280;46792;38.854;-9.384;2023-09-19T03:41:31;99662.91;;;17.25;93.05
60918;BME280;46792;38.854;-9.384;2023-09-19T03:43:33;99669.88;;;17.17;93.21
60918;BME280;46792;38.854;-9.384;2023-09-19T03:45:33;99667.28;;;17.12;93.52
60918;BME280;46792;38.854;-9.384;2023-09-19T03:47:53;99673.03;;;17.11;93.49
60918;BME280;46792;38.854;-9.384;2023-09-19T03:49:56;99662.94;;;17.11;93.95
60918;BME280;46792;38.854;-9.384;2023-09-19T03:51:57;99667.06;;;17.09;94.16
60918;BME280;46792;38.854;-9.384;2023-09-19T03:54:16;99666.78;;;17.10;94.32
60918;BME280;46792;38.854;-9.384;2023-09-19T03:56:38;99669.50;;;17.10;94.45
60918;BME280;46792;38.854;-9.384;2023-09-19T03:58:39;99672.50;;;17.09;94.84
60918;BME280;46792;38.854;-9.384;2023-09-19T04:00:40;99664.03;;;17.10;94.96
60918;BME280;46792;38.854;-9.384;2023-09-19T04:02:41;99660.19;;;17.11;94.97
60918;BME280;46792;38.854;-9.384;2023-09-19T04:04:42;99659.88;;;17.13;95.03
60918;BME280;46792;38.854;-9.384;2023-09-19T04:09:57;99655.94;;;17.19;94.64
60918;BME280;46792;38.854;-9.384;2023-09-19T04:11:58;99648.06;;;17.17;94.69
60918;BME280;46792;38.854;-9.384;2023-09-19T04:13:59;99654.34;;;17.18;94.53
60918;BME280;46792;38.854;-9.384;2023-09-19T04:16:18;99659.09;;;17.12;94.48
60918;BME280;46792;38.854;-9.384;2023-09-19T04:18:38;99660.31;;;17.06;95.05
60918;BME280;46792;38.854;-9.384;2023-09-19T04:20:58;99654.56;;;17.08;94.88
60918;BME280;46792;38.854;-9.384;2023-09-19T04:23:02;99659.69;;;17.09;95.14
60918;BME280;46792;38.854;-9.384;2023-09-19T04:25:05;99658.88;;;17.09;95.31
60918;BME280;46792;38.854;-9.384;2023-09-19T04:27:07;99658.88;;;17.09;95.46
60918;BME280;46792;38.854;-9.384;2023-09-19T04:29:08;99666.25;;;17.08;95.42
60918;BME280;46792;38.854;-9.384;2023-09-19T04:31:11;99660.00;;;17.08;95.34
60918;BME280;46792;38.854;-9.384;2023-09-19T04:33:12;99659.19;;;17.07;95.26
60918;BME280;46792;38.854;-9.384;2023-09-19T04:35:35;99650.69;;;17.09;94.89
60918;BME280;46792;38.854;-9.384;2023-09-19T04:37:54;99653.75;;;17.07;94.93
60918;BME280;46792;38.854;-9.384;2023-09-19T04:39:55;99652.94;;;17.07;94.88
60918;BME280;46792;38.854;-9.384;2023-09-19T04:41:55;99642.81;;;17.07;94.68
60918;BME280;46792;38.854;-9.384;2023-09-19T04:43:57;99652.94;;;17.07;95.06
60918;BME280;46792;38.854;-9.384;2023-09-19T04:46:17;99650.50;;;17.05;95.07
60918;BME280;46792;38.854;-9.384;2023-09-19T04:48:36;99639.91;;;17.03;95.14
60918;BME280;46792;38.854;-9.384;2023-09-19T04:50:37;99651.09;;;17.02;95.24
60918;BME280;46792;38.854;-9.384;2023-09-19T04:52:41;99644.34;;;16.99;95.79
60918;BME280;46792;38.854;-9.384;2023-09-19T04:54:42;99642.94;;;17.02;96.11
60918;BME280;46792;38.854;-9.384;2023-09-19T04:56:43;99650.50;;;17.05;95.60
60918;BME280;46792;38.854;-9.384;2023-09-19T04:59:02;99654.06;;;17.06;95.62
60918;BME280;46792;38.854;-9.384;2023-09-19T05:01:03;99649.72;;;17.05;95.60
60918;BME280;46792;38.854;-9.384;2023-09-19T05:03:04;99655.16;;;17.05;95.46
60918;BME280;46792;38.854;-9.384;2023-09-19T05:05:07;99648.09;;;17.03;95.67
60918;BME280;46792;38.854;-9.384;2023-09-19T05:07:08;99655.16;;;17.05;95.55
60918;BME280;46792;38.854;-9.384;2023-09-19T05:09:10;99657.88;;;17.05;95.48
60918;BME280;46792;38.854;-9.384;2023-09-19T05:11:30;99653.84;;;17.02;95.18
60918;BME280;46792;38.854;-9.384;2023-09-19T05:13:49;99648.69;;;17.00;95.62
60918;BME280;46792;38.854;-9.384;2023-09-19T05:15:53;99646.28;;;16.99;95.71
60918;BME280;46792;38.854;-9.384;2023-09-19T05:18:12;99650.91;;;16.98;95.22
60918;BME280;46792;38.854;-9.384;2023-09-19T05:20:12;99645.78;;;16.97;95.57
60918;BME280;46792;38.854;-9.384;2023-09-19T05:22:17;99646.06;;;16.95;95.42
60918;BME280;46792;38.854;-9.384;2023-09-19T05:24:18;99649.88;;;16.94;95.47
60918;BME280;46792;38.854;-9.384;2023-09-19T05:26:20;99652.72;;;16.89;95.92
60918;BME280;46792;38.854;-9.384;2023-09-19T05:28:21;99645.03;;;16.91;95.74
60918;BME280;46792;38.854;-9.384;2023-09-19T05:30:40;99644.22;;;16.91;95.59
60918;BME280;46792;38.854;-9.384;2023-09-19T05:32:41;99640.19;;;16.88;95.89
60918;BME280;46792;38.854;-9.384;2023-09-19T05:34:44;99640.19;;;16.88;96.13
60918;BME280;46792;38.854;-9.384;2023-09-19T05:37:03;99639.69;;;16.86;96.11
60918;BME280;46792;38.854;-9.384;2023-09-19T05:39:07;99640.19;;;16.88;95.88
60918;BME280;46792;38.854;-9.384;2023-09-19T05:41:10;99645.66;;;16.88;96.10
60918;BME280;46792;38.854;-9.384;2023-09-19T05:43:32;99647.25;;;16.89;95.80
60918;BME280;46792;38.854;-9.384;2023-09-19T05:45:51;99645.53;;;16.93;95.43
60918;BME280;46792;38.854;-9.384;2023-09-19T05:47:52;99655.13;;;16.91;95.19
60918;BME280;46792;38.854;-9.384;2023-09-19T05:49:57;99657.47;;;16.83;95.39
60918;BME280;46792;38.854;-9.384;2023-09-19T05:51:58;99647.25;;;16.75;95.49
60918;BME280;46792;38.854;-9.384;2023-09-19T05:53:59;99647.06;;;16.71;95.60
60918;BME280;46792;38.854;-9.384;2023-09-19T05:56:18;99645.84;;;16.64;95.67
60918;BME280;46792;38.854;-9.384;2023-09-19T05:58:21;99653.19;;;16.63;95.94
60918;BME280;46792;38.854;-9.384;2023-09-19T06:00:23;99657.34;;;16.61;95.81
60918;BME280;46792;38.854;-9.384;2023-09-19T06:02:43;99649.97;;;16.61;95.56
60918;BME280;46792;38.854;-9.384;2023-09-19T06:04:44;99651.09;;;16.60;95.96
60918;BME280;46792;38.854;-9.384;2023-09-19T06:06:45;99656.03;;;16.58;96.40
60918;BME280;46792;38.854;-9.384;2023-09-19T06:08:48;99657.03;;;16.62;96.55
60918;BME280;46792;38.854;-9.384;2023-09-19T06:10:50;99654.94;;;16.59;96.55
60918;BME280;46792;38.854;-9.384;2023-09-19T06:13:11;99659.16;;;16.65;96.49
60918;BME280;46792;38.854;-9.384;2023-09-19T06:15:13;99664.94;;;16.64;96.78
60918;BME280;46792;38.854;-9.384;2023-09-19T06:17:35;99659.47;;;16.64;96.59
60918;BME280;46792;38.854;-9.384;2023-09-19T06:19:57;99646.88;;;16.68;96.59
60918;BME280;46792;38.854;-9.384;2023-09-19T06:21:57;99660.38;;;16.73;95.83
60918;BME280;46792;38.854;-9.384;2023-09-19T06:23:59;99662.00;;;16.74;95.55
60918;BME280;46792;38.854;-9.384;2023-09-19T06:26:00;99661.19;;;16.73;95.13
60918;BME280;46792;38.854;-9.384;2023-09-19T06:28:01;99661.72;;;16.76;94.42
60918;BME280;46792;38.854;-9.384;2023-09-19T06:30:06;99675.34;;;16.76;94.37
60918;BME280;46792;38.854;-9.384;2023-09-19T06:32:08;99675.03;;;16.77;94.25
60918;BME280;46792;38.854;-9.384;2023-09-19T06:34:11;99672.00;;;16.79;94.07
60918;BME280;46792;38.854;-9.384;2023-09-19T06:36:15;99679.19;;;16.75;93.78
60918;BME280;46792;38.854;-9.384;2023-09-19T06:38:16;99677.56;;;16.73;94.01
60918;BME280;46792;38.854;-9.384;2023-09-19T06:40:21;99686.25;;;16.76;93.89
60918;BME280;46792;38.854;-9.384;2023-09-19T06:42:22;99687.84;;;16.77;93.95
60918;BME280;46792;38.854;-9.384;2023-09-19T06:44:24;99687.03;;;16.76;93.90
60918;BME280;46792;38.854;-9.384;2023-09-19T06:46:25;99691.97;;;16.74;93.57
60918;BME280;46792;38.854;-9.384;2023-09-19T06:48:25;99680.38;;;16.68;93.50
60918;BME280;46792;38.854;-9.384;2023-09-19T06:50:45;99687.75;;;16.68;93.40
60918;BME280;46792;38.854;-9.384;2023-09-19T06:52:47;99692.97;;;16.64;93.66
60918;BME280;46792;38.854;-9.384;2023-09-19T06:54:50;99697.91;;;16.62;94.27
60918;BME280;46792;38.854;-9.384;2023-09-19T06:56:52;99698.75;;;16.63;94.21
60918;BME280;46792;38.854;-9.384;2023-09-19T06:58:55;99699.53;;;16.63;94.21
60918;BME280;46792;38.854;-9.384;2023-09-19T07:00:55;99700.88;;;16.66;94.45
60918;BME280;46792;38.854;-9.384;2023-09-19T07:03:15;99689.84;;;16.71;94.59
60918;BME280;46792;38.854;-9.384;2023-09-19T07:05:21;99694.41;;;16.76;94.75
60918;BME280;46792;38.854;-9.384;2023-09-19T07:07:22;99693.78;;;16.79;94.97
60918;BME280;46792;38.854;-9.384;2023-09-19T07:09:23;99701.88;;;16.84;94.61
60918;BME280;46792;38.854;-9.384;2023-09-19T07:11:24;99705.13;;;16.86;94.68
60918;BME280;46792;38.854;-9.384;2023-09-19T07:13:24;99702.09;;;16.87;95.10
60918;BME280;46792;38.854;-9.384;2023-09-19T07:15:26;99702.78;;;16.93;95.24
60918;BME280;46792;38.854;-9.384;2023-09-19T07:17:27;99699.22;;;16.98;95.62
60918;BME280;46792;38.854;-9.384;2023-09-19T07:19:29;99704.25;;;17.05;96.38
60918;BME280;46792;38.854;-9.384;2023-09-19T07:21:31;99703.25;;;17.14;95.93
60918;BME280;46792;38.854;-9.384;2023-09-19T07:23:35;99702.84;;;17.21;95.56
60918;BME280;46792;38.854;-9.384;2023-09-19T07:25:36;99697.56;;;17.25;95.32
60918;BME280;46792;38.854;-9.384;2023-09-19T07:27:37;99700.81;;;17.27;94.97
60918;BME280;46792;38.854;-9.384;2023-09-19T07:29:37;99700.47;;;17.28;94.76
60918;BME280;46792;38.854;-9.384;2023-09-19T07:31:38;99704.22;;;17.32;94.50
60918;BME280;46792;38.854;-9.384;2023-09-19T07:33:39;99708.75;;;17.37;94.00
60918;BME280;46792;38.854;-9.384;2023-09-19T07:35:40;99708.16;;;17.40;93.30
60918;BME280;46792;38.854;-9.384;2023-09-19T07:37:41;99701.91;;;17.40;92.42
60918;BME280;46792;38.854;-9.384;2023-09-19T07:40:00;99704.81;;;17.43;92.01
60918;BME280;46792;38.854;-9.384;2023-09-19T07:42:01;99701.78;;;17.45;91.16
60918;BME280;46792;38.854;-9.384;2023-09-19T07:44:01;99711.56;;;17.46;90.84
60918;BME280;46792;38.854;-9.384;2023-09-19T07:46:06;99698.63;;;17.52;90.70
60918;BME280;46792;38.854;-9.384;2023-09-19T07:48:07;99695.59;;;17.53;89.96
60918;BME280;46792;38.854;-9.384;2023-09-19T07:50:15;99700.31;;;17.61;89.50
60918;BME280;46792;38.854;-9.384;2023-09-19T07:52:35;99696.06;;;17.69;89.04
60918;BME280;46792;38.854;-9.384;2023-09-19T07:54:55;99695.34;;;17.77;88.29
60918;BME280;46792;38.854;-9.384;2023-09-19T07:56:57;99695.41;;;17.86;87.67
60918;BME280;46792;38.854;-9.384;2023-09-19T07:58:58;99699.00;;;17.96;86.90
60918;BME280;46792;38.854;-9.384;2023-09-19T08:01:06;99693.81;;;18.08;86.30
60918;BME280;46792;38.854;-9.384;2023-09-19T08:03:07;99701.56;;;18.15;85.78
60918;BME280;46792;38.854;-9.384;2023-09-19T08:05:28;99699.72;;;18.24;85.31
60918;BME280;46792;38.854;-9.384;2023-09-19T08:07:28;99709.28;;;18.35;85.09
60918;BME280;46792;38.854;-9.384;2023-09-19T08:09:29;99699.84;;;18.42;84.37
60918;BME280;46792;38.854;-9.384;2023-09-19T08:11:33;99710.31;;;18.48;83.52
60918;BME280;46792;38.854;-9.384;2023-09-19T08:13:34;99710.38;;;18.57;82.61
60918;BME280;46792;38.854;-9.384;2023-09-19T08:15:34;99710.41;;;18.66;82.05
60918;BME280;46792;38.854;-9.384;2023-09-19T08:17:35;99713.81;;;18.72;80.51
60918;BME280;46792;38.854;-9.384;2023-09-19T08:19:36;99712.06;;;18.76;79.63
60918;BME280;46792;38.854;-9.384;2023-09-19T08:21:41;99716.59;;;18.80;78.90
60918;BME280;46792;38.854;-9.384;2023-09-19T08:23:45;99719.66;;;18.88;77.57
60918;BME280;46792;38.854;-9.384;2023-09-19T08:26:05;99715.81;;;18.89;76.21
60918;BME280;46792;38.854;-9.384;2023-09-19T08:28:08;99715.88;;;18.97;75.83
60918;BME280;46792;38.854;-9.384;2023-09-19T08:30:12;99724.13;;;19.06;75.29
60918;BME280;46792;38.854;-9.384;2023-09-19T08:32:13;99722.84;;;19.12;75.00
60918;BME280;46792;38.854;-9.384;2023-09-19T08:34:15;99728.03;;;19.23;73.72
60918;BME280;46792;38.854;-9.384;2023-09-19T08:36:16;99727.56;;;19.29;73.41
60918;BME280;46792;38.854;-9.384;2023-09-19T08:38:16;99729.19;;;19.39;72.73
60918;BME280;46792;38.854;-9.384;2023-09-19T08:40:17;99724.22;;;19.41;72.68
60918;BME280;46792;38.854;-9.384;2023-09-19T08:42:17;99732.13;;;19.52;73.23
60918;BME280;46792;38.854;-9.384;2023-09-19T08:44:21;99735.19;;;19.59;73.75
60918;BME280;46792;38.854;-9.384;2023-09-19T08:46:25;99732.78;;;19.66;71.81
60918;BME280;46792;38.854;-9.384;2023-09-19T08:48:29;99739.72;;;19.64;74.01
60918;BME280;46792;38.854;-9.384;2023-09-19T08:51:03;99740.69;;;19.68;74.15
60918;BME280;46792;38.854;-9.384;2023-09-19T08:55:37;99738.75;;;19.86;71.74
60918;BME280;46792;38.854;-9.384;2023-09-19T08:57:41;99751.53;;;19.90;72.26
60918;BME280;46792;38.854;-9.384;2023-09-19T08:59:44;99758.63;;;19.91;72.46
60918;BME280;46792;38.854;-9.384;2023-09-19T09:01:45;99750.41;;;19.91;72.24
60918;BME280;46792;38.854;-9.384;2023-09-19T09:03:47;99756.38;;;20.02;71.92
60918;BME280;46792;38.854;-9.384;2023-09-19T09:05:50;99751.22;;;20.01;72.23
60918;BME280;46792;38.854;-9.384;2023-09-19T09:07:53;99752.66;;;19.98;70.19
60918;BME280;46792;38.854;-9.384;2023-09-19T09:09:57;99748.97;;;20.03;68.90
60918;BME280;46792;38.854;-9.384;2023-09-19T09:11:58;99746.38;;;20.15;69.15
60918;BME280;46792;38.854;-9.384;2023-09-19T09:14:00;99749.13;;;20.24;67.64
60918;BME280;46792;38.854;-9.384;2023-09-19T09:16:01;99753.28;;;20.30;64.89
60918;BME280;46792;38.854;-9.384;2023-09-19T09:18:02;99755.88;;;20.18;64.11
60918;BME280;46792;38.854;-9.384;2023-09-19T09:20:05;99750.53;;;20.21;63.66
60918;BME280;46792;38.854;-9.384;2023-09-19T09:22:09;99762.00;;;20.24;64.45
60918;BME280;46792;38.854;-9.384;2023-09-19T09:24:29;99762.66;;;20.29;66.46
60918;BME280;46792;38.854;-9.384;2023-09-19T09:26:42;99757.47;;;20.36;65.64
60918;BME280;46792;38.854;-9.384;2023-09-19T09:28:46;99753.44;;;20.43;63.55
60918;BME280;46792;38.854;-9.384;2023-09-19T09:30:49;99746.34;;;20.50;64.54
60918;BME280;46792;38.854;-9.384;2023-09-19T09:33:07;99752.75;;;20.55;66.94
60918;BME280;46792;38.854;-9.384;2023-09-19T09:35:08;99759.19;;;20.67;65.76
60918;BME280;46792;38.854;-9.384;2023-09-19T09:37:19;99755.66;;;20.76;67.06
60918;BME280;46792;38.854;-9.384;2023-09-19T09:39:30;99751.56;;;20.91;65.30
60918;BME280;46792;38.854;-9.384;2023-09-19T09:41:40;99757.50;;;21.02;66.43
60918;BME280;46792;38.854;-9.384;2023-09-19T09:43:42;99751.34;;;21.05;67.40
60918;BME280;46792;38.854;-9.384;2023-09-19T09:45:45;99752.47;;;21.04;67.68
60918;BME280;46792;38.854;-9.384;2023-09-19T09:47:49;99756.47;;;21.15;68.21
60918;BME280;46792;38.854;-9.384;2023-09-19T09:49:56;99752.88;;;21.23;66.82
60918;BME280;46792;38.854;-9.384;2023-09-19T09:52:07;99752.84;;;21.32;66.60
60918;BME280;46792;38.854;-9.384;2023-09-19T09:54:17;99753.03;;;21.27;65.44
60918;BME280;46792;38.854;-9.384;2023-09-19T09:56:20;99764.47;;;21.29;64.12
60918;BME280;46792;38.854;-9.384;2023-09-19T09:58:21;99752.97;;;21.36;64.24
60918;BME280;46792;38.854;-9.384;2023-09-19T10:00:25;99758.25;;;21.50;63.22
60918;BME280;46792;38.854;-9.384;2023-09-19T10:02:51;99752.09;;;21.44;62.77
60918;BME280;46792;38.854;-9.384;2023-09-19T10:05:19;99760.47;;;21.56;62.46
60918;BME280;46792;38.854;-9.384;2023-09-19T10:07:30;99749.75;;;21.64;61.58
60918;BME280;46792;38.854;-9.384;2023-09-19T10:09:51;99756.88;;;21.65;60.79
60918;BME280;46792;38.854;-9.384;2023-09-19T10:12:21;99751.06;;;21.57;62.78
60918;BME280;46792;38.854;-9.384;2023-09-19T10:14:30;99755.28;;;21.55;62.25
60918;BME280;46792;38.854;-9.384;2023-09-19T10:16:32;99746.38;;;21.58;60.77
60918;BME280;46792;38.854;-9.384;2023-09-19T10:18:36;99745.41;;;21.63;61.56
60918;BME280;46792;38.854;-9.384;2023-09-19T10:20:39;99749.31;;;21.53;61.30
60918;BME280;46792;38.854;-9.384;2023-09-19T10:22:42;99748.16;;;21.63;61.36
60918;BME280;46792;38.854;-9.384;2023-09-19T10:24:43;99746.47;;;21.70;64.10
60918;BME280;46792;38.854;-9.384;2023-09-19T10:26:47;99749.03;;;21.97;66.91
60918;BME280;46792;38.854;-9.384;2023-09-19T10:28:51;99749.97;;;22.01;62.10
60918;BME280;46792;38.854;-9.384;2023-09-19T10:31:01;99741.91;;;21.96;61.84
60918;BME280;46792;38.854;-9.384;2023-09-19T10:33:04;99746.16;;;21.93;62.61
60918;BME280;46792;38.854;-9.384;2023-09-19T10:35:07;99743.88;;;21.95;62.97
60918;BME280;46792;38.854;-9.384;2023-09-19T10:37:08;99747.28;;;22.13;62.89
60918;BME280;46792;38.854;-9.384;2023-09-19T10:39:15;99745.50;;;22.30;59.70
60918;BME280;46792;38.854;-9.384;2023-09-19T10:41:22;99741.84;;;22.38;58.96
60918;BME280;46792;38.854;-9.384;2023-09-19T10:43:30;99749.06;;;22.52;57.71
60918;BME280;46792;38.854;-9.384;2023-09-19T10:45:34;99742.91;;;22.67;62.58
60918;BME280;46792;38.854;-9.384;2023-09-19T10:47:35;99741.41;;;22.82;64.65
60918;BME280;46792;38.854;-9.384;2023-09-19T10:49:44;99750.50;;;22.95;63.15
60918;BME280;46792;38.854;-9.384;2023-09-19T10:51:51;99742.72;;;22.97;64.33
60918;BME280;46792;38.854;-9.384;2023-09-19T10:53:59;99742.94;;;23.04;64.79
60918;BME280;46792;38.854;-9.384;2023-09-19T10:56:02;99749.16;;;23.01;63.10
60918;BME280;46792;38.854;-9.384;2023-09-19T10:58:11;99741.66;;;23.02;63.51
60918;BME280;46792;38.854;-9.384;2023-09-19T11:00:15;99740.06;;;23.13;65.60
60918;BME280;46792;38.854;-9.384;2023-09-19T11:02:23;99737.59;;;23.20;66.81
60918;BME280;46792;38.854;-9.384;2023-09-19T11:04:31;99733.09;;;23.28;67.61
60918;BME280;46792;38.854;-9.384;2023-09-19T11:06:35;99731.47;;;23.39;67.17
60918;BME280;46792;38.854;-9.384;2023-09-19T11:08:59;99731.69;;;23.59;65.88
60918;BME280;46792;38.854;-9.384;2023-09-19T11:13:39;99731.69;;;23.59;63.74
60918;BME280;46792;38.854;-9.384;2023-09-19T11:17:58;99733.84;;;23.66;65.41
60918;BME280;46792;38.854;-9.384;2023-09-19T11:22:12;99709.81;;;23.79;65.61
60918;BME280;46792;38.854;-9.384;2023-09-19T11:26:42;99710.81;;;23.99;63.00
60918;BME280;46792;38.854;-9.384;2023-09-19T11:29:24;99710.69;;;23.95;63.59
60918;BME280;46792;38.854;-9.384;2023-09-19T11:31:43;99701.59;;;23.95;63.10
60918;BME280;46792;38.854;-9.384;2023-09-19T11:33:48;99697.81;;;23.99;63.40
60918;BME280;46792;38.854;-9.384;2023-09-19T11:36:09;99705.16;;;23.95;62.60
60918;BME280;46792;38.854;-9.384;2023-09-19T11:38:12;99692.75;;;24.02;65.21
60918;BME280;46792;38.854;-9.384;2023-09-19T11:40:15;99701.56;;;24.07;65.93
60918;BME280;46792;38.854;-9.384;2023-09-19T11:42:46;99693.41;;;24.11;63.58
60918;BME280;46792;38.854;-9.384;2023-09-19T11:44:54;99696.22;;;23.98;64.28
60918;BME280;46792;38.854;-9.384;2023-09-19T11:46:59;99695.78;;;23.96;64.32
60918;BME280;46792;38.854;-9.384;2023-09-19T11:49:07;99693.47;;;23.98;63.94
60918;BME280;46792;38.854;-9.384;2023-09-19T11:51:11;99689.75;;;24.07;63.45
60918;BME280;46792;38.854;-9.384;2023-09-19T11:53:21;99702.16;;;24.00;63.45
60918;BME280;46792;38.854;-9.384;2023-09-19T11:55:25;99688.50;;;24.04;64.36
60918;BME280;46792;38.854;-9.384;2023-09-19T11:57:34;99687.44;;;24.09;64.06
60918;BME280;46792;38.854;-9.384;2023-09-19T11:59:38;99685.59;;;24.13;63.36
60918;BME280;46792;38.854;-9.384;2023-09-19T12:01:50;99683.91;;;23.96;61.88